Hlavní strana
METAR-TAF:

METAR-TAF

Letiště :

Norrköping, Švédsko

zeměpisná šířka: 58-35N, zeměpisná délka: 016-09E, výška: 34 m

Aktuální stav počasí

Zpráva byla vytvořena před 41 minutami, v 15:20 UTC
Západní vítr 13 kt
Teplota 10°C
Vlhkost vzduchu 66%
Tlak 1018 hPa
Viditelnost 10 km a více
Skoro jasno ve výšce 2500 ft

METAR: ESSP 201520Z 27013KT 9999 FEW025 10/04 Q1018 R27/09//95

Čas: 17:01 (16:01 UTC)

Předpověď počasí

Zpráva byla vytvořena před 1 hodinou a 31 minutami, v 14:30 UTC
Předpověď platná od 20 v 15 UTC do 20 v 22 UTC
Západní vítr 14 kt
Viditelnost 10 km a více
Žádná oblačnost pod 1500 m, nevyskytují se cumulonimby.

TAF: ESSP 201430Z 2015/2022 26014KT CAVOK

Stav a předpovědi počasí z více než 4 000 letišť (zprávy METAR a TAF).

Červené a žluté tečky na mapě představují dostupné meteorologické stanice.

Když kurzor umístíte na tečku, zobrazí se název stanice.

Pak kliknutím zobrazíte stav a předpověď počasí.

Chcete-li změnit mapu, kliknutím na zelené tlačítko se znaménkem +mapu přiblížíte, kliknutím na zelené tlačítko se znaménkem – mapu oddálíte a kliknutím na zelené šipky přejdete na sousední mapy.


METAR-TAF: